Impacts METAR Board INFO
IDs:

KLAX - Los Angeles Intl, CA, US

Updated at: 1358 UTC 15 Dec 2017
Potential Impact None Slight Moderate High
Time15/01Z 15/02Z 15/03Z 15/04Z 15/05Z 15/06Z 15/07Z 15/08Z 15/09Z 15/10Z 15/11Z 15/12Z 15/13Z
VIS9 10 10 10 10 10 10 10 10 10 10 10 10
CIG-- -- -- -- -- -- -- -- -- -- -- -- --
CoverFEWFEWFEWFEWFEWFEWFEWFEWFEWFEWFEWFEWCLR
FltCatVFRVFRVFRVFRVFRVFRVFRVFRVFRVFRVFRVFRVFR
WX--------------------------
WDir240270200130702000010013012080
WSpd6 6 3 7 5 4 3 0 0 3 3 3 4
WGst-- -- -- -- -- -- -- -- -- -- -- -- --
Raw hourly METARs
KLAX 150053Z 24006KT 9SM FEW090 FEW200 17/13 A3001 RMK AO2 SLP161 T01670133
KLAX 150153Z 27006KT 10SM FEW090 FEW200 17/13 A3002 RMK AO2 SLP167 T01670133
KLAX 150253Z 20003KT 10SM FEW200 17/12 A3004 RMK AO2 SLP173 T01670122 53014
KLAX 150353Z 13007KT 10SM FEW200 17/11 A3005 RMK AO2 SLP176 T01670111
KLAX 150453Z 07005KT 10SM FEW200 14/11 A3007 RMK AO2 SLP180 T01440106
KLAX 150553Z 02004KT 10SM FEW200 17/06 A3008 RMK AO2 SLP183 T01720056 10194 20139 53012
KLAX 150653Z VRB03KT 10SM FEW200 16/03 A3009 RMK AO2 SLP187 T01610033
KLAX 150753Z 00000KT 10SM FEW200 16/02 A3009 RMK AO2 SLP188 T01610022 402220094
KLAX 150853Z 00000KT 10SM FEW200 17/00 A3010 RMK AO2 SLP190 T01670000 51006
KLAX 150953Z 10003KT 10SM FEW200 14/01 A3011 RMK AO2 SLP193 T01390006
KLAX 151053Z 13003KT 10SM FEW200 12/00 A3011 RMK AO2 SLP194 T01220000
KLAX 151153Z 12003KT 10SM FEW200 11/03 A3011 RMK AO2 SLP193 T01110028 10189 20106 50002
KLAX 151253Z 08004KT 10SM CLR 12/M01 A3011 RMK AO2 SLP193 T01171011